Time;durP1;ratioP1;P1;durP2;ratioP2;P2;SDS_P1;SDS_P2;PMS_P1;PMS_P2;Temp;Humidity;BMP_temperature;BMP_pressure;BME280_temperature;BME280_humidity;BME280_pressure;Samples;Min_cycle;Max_cycle;Signal;HPM_P1;HPM_P2
2022/09/16 00:01:11;;;;;;;;;;;;;;;12.74;87.39;101118.09;5094575;28;19912;-34
2022/09/16 00:03:36;;;;;;;;;;;;;;;12.73;87.71;101109.09;5094375;28;20244;-34
2022/09/16 00:06:01;;;;;;;;;;;;;;;12.73;87.53;101108.25;5094016;28;19919;-34
2022/09/16 00:08:26;;;;;;;;;;;;;;;12.73;87.44;101110.97;5094291;28;19912;-34
2022/09/16 00:10:52;;;;;;;;;;;;;;;12.73;88.20;101110.97;5093897;28;19916;-34
2022/09/16 00:13:17;;;;;;;;;;;;;;;12.73;88.11;101105.56;5093951;28;19912;-34
2022/09/16 00:15:44;;;;;;;;;;;;;;;12.70;87.97;101103.34;5094604;28;19965;-34
2022/09/16 00:18:10;;;;;;;;;;;;;;;12.70;88.08;101095.19;5093840;28;19916;-35
2022/09/16 00:20:36;;;;;;;;;;;;;;;12.71;87.56;101099.56;5093742;28;19955;-34
2022/09/16 00:23:01;;;;;;;;;;;;;;;12.73;87.93;101100.13;5093433;28;19919;-34
2022/09/16 00:25:27;;;;;;;;;;;;;;;12.74;87.63;101096.38;5093972;28;19912;-34
2022/09/16 00:27:52;;;;;;;;;;;;;;;12.73;87.79;101089.28;5093929;28;19919;-34
2022/09/16 00:30:17;;;;;;;;;;;;;;;12.72;87.96;101099.31;5093698;28;20295;-35
2022/09/16 00:32:43;;;;;;;;;;;;;;;12.73;88.08;101094.69;5092832;28;19923;-34
2022/09/16 00:35:08;;;;;;;;;;;;;;;12.72;87.96;101096.59;5093486;28;20292;-34
2022/09/16 00:37:33;;;;;;;;;;;;;;;12.72;87.95;101098.47;5094298;28;19934;-34
2022/09/16 00:39:59;;;;;;;;;;;;;;;12.71;88.39;101099.56;5093344;28;20035;-35
2022/09/16 00:42:24;;;;;;;;;;;;;;;12.68;88.31;101095.41;5093483;28;19912;-35
2022/09/16 00:44:54;;;;;;;;;;;;;;;12.66;88.01;101092.13;5093507;28;19918;-35
2022/09/16 00:47:25;;;;;;;;;;;;;;;12.66;88.28;101094.00;5093778;28;20354;-35
2022/09/16 00:49:53;;;;;;;;;;;;;;;12.65;88.49;101092.38;5093444;28;19934;-35
2022/09/16 00:52:18;;;;;;;;;;;;;;;12.62;88.68;101089.06;5093757;28;19954;-35
2022/09/16 00:54:44;;;;;;;;;;;;;;;12.60;88.35;101084.94;5093427;28;19912;-35
2022/09/16 00:57:10;;;;;;;;;;;;;;;12.57;88.33;101090.84;5093841;28;19919;-35
2022/09/16 00:59:37;;;;;;;;;;;;;;;12.54;88.40;101094.00;5093916;28;19959;-35
2022/09/16 01:02:05;;;;;;;;;;;;;;;12.48;88.40;101097.69;5093926;28;19919;-35
2022/09/16 01:04:36;;;;;;;;;;;;;;;12.45;88.66;101090.88;5093068;28;19912;-35
2022/09/16 01:07:01;;;;;;;;;;;;;;;12.38;88.60;101085.53;5093819;28;19912;-35
2022/09/16 01:09:28;;;;;;;;;;;;;;;12.34;88.70;101094.38;5092848;28;19919;-35
2022/09/16 01:11:53;;;;;;;;;;;;;;;12.31;89.10;101089.47;5094111;28;19919;-35
2022/09/16 01:17:09;;;;;;;;;;;;;;;12.17;89.48;101082.63;5093244;28;20057;-35
2022/09/16 01:19:51;;;;;;;;;;;;;;;12.10;89.18;101089.00;5093468;28;19936;-35
2022/09/16 01:22:26;;;;;;;;;;;;;;;12.05;89.34;101086.16;5092854;28;19912;-35
2022/09/16 01:24:55;;;;;;;;;;;;;;;12.01;89.18;101084.97;5093125;28;19912;-35
2022/09/16 01:27:26;;;;;;;;;;;;;;;12.02;89.39;101091.22;5093334;28;19965;-35
2022/09/16 01:30:10;;;;;;;;;;;;;;;12.01;89.40;101082.25;5093096;28;19912;-34
2022/09/16 01:32:52;;;;;;;;;;;;;;;11.98;89.81;101082.72;5093608;28;20003;-34
2022/09/16 01:35:23;;;;;;;;;;;;;;;11.92;90.14;101083.66;5092775;28;20360;-34
2022/09/16 01:38:06;;;;;;;;;;;;;;;11.87;89.99;101082.72;5093593;28;19944;-34
2022/09/16 01:40:46;;;;;;;;;;;;;;;11.84;90.03;101084.81;5093042;28;19935;-34
2022/09/16 01:43:20;;;;;;;;;;;;;;;11.83;89.91;101085.06;5093499;28;19934;-34
2022/09/16 01:45:48;;;;;;;;;;;;;;;11.79;90.05;101081.94;5092849;28;20001;-35
2022/09/16 01:48:37;;;;;;;;;;;;;;;11.78;89.96;101087.63;5093179;28;19927;-35
2022/09/16 01:51:16;;;;;;;;;;;;;;;11.76;90.18;101079.72;5089724;28;19919;-34
2022/09/16 01:53:47;;;;;;;;;;;;;;;11.76;89.89;101076.16;5095407;28;20348;-35
2022/09/16 01:56:12;;;;;;;;;;;;;;;11.76;89.96;101070.75;5096511;28;19911;-34
2022/09/16 01:58:44;;;;;;;;;;;;;;;11.73;89.93;101074.75;5096770;28;19961;-34
2022/09/16 02:01:22;;;;;;;;;;;;;;;11.69;89.91;101084.41;5096748;28;19919;-34
2022/09/16 02:03:51;;;;;;;;;;;;;;;11.69;90.75;101083.59;5096684;28;19912;-34
2022/09/16 02:06:19;;;;;;;;;;;;;;;11.65;90.58;101087.81;5097083;28;20006;-34
2022/09/16 02:08:55;;;;;;;;;;;;;;;11.62;90.45;101093.72;5096581;28;20002;-35
2022/09/16 02:11:21;;;;;;;;;;;;;;;11.59;90.63;101095.81;5096335;28;20276;-35
2022/09/16 02:13:48;;;;;;;;;;;;;;;11.58;90.62;101086.03;5096916;28;19912;-35
2022/09/16 02:16:17;;;;;;;;;;;;;;;11.59;90.86;101089.56;5096084;28;19981;-34
2022/09/16 02:18:47;;;;;;;;;;;;;;;11.61;90.83;101095.56;5095445;28;19931;-34
2022/09/16 02:21:14;;;;;;;;;;;;;;;11.62;90.98;101094.53;5095734;28;19912;-34
2022/09/16 02:23:49;;;;;;;;;;;;;;;11.66;90.72;101092.16;5096858;28;20409;-34
2022/09/16 02:26:17;;;;;;;;;;;;;;;11.70;90.80;101096.06;5096483;28;20322;-34
2022/09/16 02:28:45;;;;;;;;;;;;;;;11.74;90.67;101086.44;5096215;28;19957;-34
2022/09/16 02:31:11;;;;;;;;;;;;;;;11.77;90.49;101096.81;5095556;28;19957;-35
2022/09/16 02:33:41;;;;;;;;;;;;;;;11.77;91.09;101086.78;5095861;28;19912;-34
2022/09/16 02:36:07;;;;;;;;;;;;;;;11.81;90.69;101092.59;5095444;28;19912;-35
2022/09/16 02:38:39;;;;;;;;;;;;;;;11.81;90.89;101090.69;5096373;28;19912;-34
2022/09/16 02:41:05;;;;;;;;;;;;;;;11.82;90.78;101083.41;5095759;28;19912;-34
2022/09/16 02:43:31;;;;;;;;;;;;;;;11.83;90.52;101085.06;5095701;28;20008;-34
2022/09/16 02:46:02;;;;;;;;;;;;;;;11.83;90.52;101085.06;5095587;28;19912;-34
2022/09/16 02:48:46;;;;;;;;;;;;;;;11.84;90.34;101086.72;5096390;28;20309;-34
2022/09/16 02:51:17;;;;;;;;;;;;;;;11.83;90.80;101085.06;5095999;28;19912;-34
2022/09/16 02:53:51;;;;;;;;;;;;;;;11.83;90.80;101085.06;5095501;28;20344;-34
2022/09/16 02:56:23;;;;;;;;;;;;;;;11.83;90.49;101085.88;5094712;28;19928;-34
2022/09/16 02:58:48;;;;;;;;;;;;;;;11.85;90.32;101077.50;5095655;28;19916;-34
2022/09/16 03:01:14;;;;;;;;;;;;;;;11.86;90.22;101081.91;5095595;28;20370;-34
2022/09/16 03:03:40;;;;;;;;;;;;;;;11.90;90.23;101085.75;5094662;28;19918;-34
2022/09/16 03:06:05;;;;;;;;;;;;;;;11.91;90.41;101087.44;5095042;28;19912;-33
2022/09/16 03:08:31;;;;;;;;;;;;;;;11.94;90.51;101089.66;5095236;28;20352;-34
2022/09/16 03:10:59;;;;;;;;;;;;;;;11.96;90.04;101082.16;5095982;28;19953;-34
2022/09/16 03:13:30;;;;;;;;;;;;;;;11.98;90.31;101079.19;5095363;28;19922;-34
2022/09/16 03:15:55;;;;;;;;;;;;;;;11.99;90.12;101081.66;5095238;28;19911;-34
2022/09/16 03:18:27;;;;;;;;;;;;;;;11.99;90.18;101083.53;5094495;28;19912;-34
2022/09/16 03:21:21;;;;;;;;;;;;;;;12.00;90.18;101085.19;5094950;28;19923;-34
2022/09/16 03:23:53;;;;;;;;;;;;;;;11.99;90.47;101083.53;5072909;28;20271;-34
2022/09/16 03:26:25;;;;;;;;;;;;;;;11.99;90.33;101080.84;5072161;28;20332;-34
2022/09/16 03:28:50;;;;;;;;;;;;;;;12.01;90.34;101076.03;5072909;28;19912;-34
2022/09/16 03:31:19;;;;;;;;;;;;;;;12.00;90.33;101075.16;5072111;28;20294;-34
2022/09/16 03:33:55;;;;;;;;;;;;;;;12.00;90.15;101075.16;5072789;28;19912;-34
2022/09/16 03:36:25;;;;;;;;;;;;;;;12.00;89.99;101074.34;5072499;28;20050;-34
2022/09/16 03:38:52;;;;;;;;;;;;;;;12.01;90.63;101067.88;5071980;28;20400;-34
2022/09/16 03:41:17;;;;;;;;;;;;;;;11.98;90.53;101069.16;5072046;28;19912;-34
2022/09/16 03:43:55;;;;;;;;;;;;;;;11.97;90.40;101072.94;5072159;28;19975;-34
2022/09/16 03:46:20;;;;;;;;;;;;;;;11.96;90.76;101067.78;5072363;28;19912;-35
2022/09/16 03:48:46;;;;;;;;;;;;;;;11.95;90.58;101076.94;5071796;28;19912;-35
2022/09/16 03:51:11;;;;;;;;;;;;;;;11.93;90.61;101071.75;5072361;28;19913;-35
2022/09/16 03:53:36;;;;;;;;;;;;;;;11.93;90.73;101074.47;5072360;28;19919;-35
2022/09/16 03:56:01;;;;;;;;;;;;;;;11.91;90.74;101075.75;5071627;28;19912;-35
2022/09/16 03:58:26;;;;;;;;;;;;;;;11.91;90.68;101075.75;5071910;28;19917;-35
2022/09/16 04:00:52;;;;;;;;;;;;;;;11.89;91.37;101083.28;5089611;28;19996;-35
2022/09/16 04:03:18;;;;;;;;;;;;;;;11.86;91.11;101079.19;5094186;28;19912;-35
2022/09/16 04:05:43;;;;;;;;;;;;;;;11.87;91.05;101074.59;5094626;28;19930;-35
2022/09/16 04:08:08;;;;;;;;;;;;;;;11.87;90.80;101080.84;5094451;28;20005;-35
2022/09/16 04:10:33;;;;;;;;;;;;;;;11.88;91.08;101076.22;5094159;28;20249;-35
2022/09/16 04:12:58;;;;;;;;;;;;;;;11.88;91.04;101077.06;5094102;28;19965;-35
2022/09/16 04:15:24;;;;;;;;;;;;;;;11.87;91.70;101075.41;5093847;28;19912;-35
2022/09/16 04:17:49;;;;;;;;;;;;;;;11.89;90.97;101077.88;5094487;28;19962;-35
2022/09/16 04:20:14;;;;;;;;;;;;;;;11.88;90.99;101085.19;5094168;28;19916;-35
2022/09/16 04:22:39;;;;;;;;;;;;;;;11.88;90.76;101085.19;5094425;28;20202;-35
2022/09/16 04:25:05;;;;;;;;;;;;;;;11.87;91.14;101080.84;5093534;28;19912;-35
2022/09/16 04:27:30;;;;;;;;;;;;;;;11.85;91.08;101089.16;5093802;28;19912;-35
2022/09/16 04:29:55;;;;;;;;;;;;;;;11.85;91.10;101093.78;5093443;28;20006;-35
2022/09/16 04:32:20;;;;;;;;;;;;;;;11.84;91.03;101086.72;5094074;28;19912;-35
2022/09/16 04:34:46;;;;;;;;;;;;;;;11.84;90.73;101087.53;5093491;28;20280;-35
2022/09/16 04:37:11;;;;;;;;;;;;;;;11.85;91.13;101085.63;5093304;28;20282;-35
2022/09/16 04:39:36;;;;;;;;;;;;;;;11.83;91.34;101085.88;5093616;28;19912;-35
2022/09/16 04:42:01;;;;;;;;;;;;;;;11.84;91.75;101081.28;5093925;28;20276;-35
2022/09/16 04:44:29;;;;;;;;;;;;;;;11.85;91.47;101083.75;5093650;28;19919;-35
2022/09/16 04:46:54;;;;;;;;;;;;;;;11.84;91.21;101071.28;5094419;28;19913;-35
2022/09/16 04:49:19;;;;;;;;;;;;;;;11.88;91.35;101068.94;5093874;28;20410;-35
2022/09/16 04:51:44;;;;;;;;;;;;;;;11.88;92.32;101055.38;5093197;28;19912;-35
2022/09/16 04:54:11;;;;;;;;;;;;;;;11.85;91.97;101051.25;5094501;28;19957;-35
2022/09/16 04:56:36;;;;;;;;;;;;;;;11.85;91.66;101053.13;5092219;28;20351;-35
2022/09/16 04:59:03;;;;;;;;;;;;;;;11.84;92.24;101055.00;5093442;28;19959;-35
2022/09/16 05:01:29;;;;;;;;;;;;;;;11.84;91.70;101075.88;5093248;28;20412;-35
2022/09/16 05:03:56;;;;;;;;;;;;;;;11.86;91.75;101076.47;5094600;28;19959;-35
2022/09/16 05:06:23;;;;;;;;;;;;;;;11.85;91.75;101085.63;5093595;28;19912;-35
2022/09/16 05:08:49;;;;;;;;;;;;;;;11.85;91.76;101078.34;5093086;28;19916;-35
2022/09/16 05:11:15;;;;;;;;;;;;;;;11.85;92.14;101082.94;5093749;28;19968;-34
2022/09/16 05:13:40;;;;;;;;;;;;;;;11.83;91.69;101085.88;5093310;28;19912;-35
2022/09/16 05:16:10;;;;;;;;;;;;;;;11.82;91.71;101078.00;5093170;28;19916;-35
2022/09/16 05:18:36;;;;;;;;;;;;;;;11.75;93.00;101088.06;5093546;28;19911;-35
2022/09/16 05:21:03;;;;;;;;;;;;;;;11.74;92.47;101094.56;5092933;28;19912;-35
2022/09/16 05:23:28;;;;;;;;;;;;;;;11.75;92.56;101093.50;5093497;28;19923;-35
2022/09/16 05:25:54;;;;;;;;;;;;;;;11.73;92.40;101079.38;5093289;28;20368;-35
2022/09/16 05:28:19;;;;;;;;;;;;;;;11.73;92.42;101080.19;5095783;28;19912;-35
2022/09/16 05:30:44;;;;;;;;;;;;;;;11.72;92.27;101075.00;5097528;28;19965;-35
2022/09/16 05:33:10;;;;;;;;;;;;;;;11.75;92.08;101082.66;5097153;28;20324;-35
2022/09/16 05:35:35;;;;;;;;;;;;;;;11.73;92.21;101084.78;5097762;28;19912;-35
2022/09/16 05:38:00;;;;;;;;;;;;;;;11.74;92.07;101078.28;5097215;28;19947;-35
2022/09/16 05:40:26;;;;;;;;;;;;;;;11.73;92.32;101080.19;5096946;28;20278;-34
2022/09/16 05:42:51;;;;;;;;;;;;;;;11.73;92.15;101080.19;5097421;28;20249;-34
2022/09/16 05:45:16;;;;;;;;;;;;;;;11.74;91.79;101091.84;5096640;28;19977;-34
2022/09/16 05:47:45;;;;;;;;;;;;;;;11.76;92.22;101095.13;5096585;28;20002;-34
2022/09/16 05:50:11;;;;;;;;;;;;;;;11.74;92.12;101087.25;5096827;28;19919;-34
2022/09/16 05:52:36;;;;;;;;;;;;;;;11.75;92.34;101093.50;5096168;28;19924;-34
2022/09/16 05:55:01;;;;;;;;;;;;;;;11.76;92.22;101084.28;5096639;28;20271;-34
2022/09/16 05:57:26;;;;;;;;;;;;;;;11.75;92.98;101093.50;5096808;28;19916;-34
2022/09/16 05:59:51;;;;;;;;;;;;;;;11.76;92.46;101095.97;5094300;28;20364;-34
2022/09/16 06:02:17;;;;;;;;;;;;;;;11.80;92.99;101096.31;5096410;28;19912;-34
2022/09/16 06:04:42;;;;;;;;;;;;;;;11.81;92.61;101085.28;5097114;28;19915;-34
2022/09/16 06:07:07;;;;;;;;;;;;;;;11.86;92.79;101092.72;5096794;28;20291;-34
2022/09/16 06:09:33;;;;;;;;;;;;;;;11.88;92.23;101103.34;5096841;28;19919;-34
2022/09/16 06:11:58;;;;;;;;;;;;;;;11.90;92.83;101112.88;5096409;28;19916;-34
2022/09/16 06:14:23;;;;;;;;;;;;;;;11.92;92.67;101105.34;5095371;28;19966;-34
2022/09/16 06:16:49;;;;;;;;;;;;;;;11.95;92.59;101107.56;5095986;28;19916;-34
2022/09/16 06:19:15;;;;;;;;;;;;;;;11.94;92.28;101103.22;5096147;28;20010;-34
2022/09/16 06:21:42;;;;;;;;;;;;;;;11.93;92.20;101098.84;5096460;28;19912;-34
2022/09/16 06:24:07;;;;;;;;;;;;;;;11.95;92.68;101096.72;5095841;28;19912;-34
2022/09/16 06:26:33;;;;;;;;;;;;;;;11.98;92.53;101106.28;5096057;28;19960;-34
2022/09/16 06:28:59;;;;;;;;;;;;;;;12.00;92.72;101113.09;5095871;28;20029;-34
2022/09/16 06:31:25;;;;;;;;;;;;;;;12.06;92.78;101114.91;5096266;28;19919;-34
2022/09/16 06:33:51;;;;;;;;;;;;;;;12.13;92.93;101113.97;5096210;28;20002;-34
2022/09/16 06:36:26;;;;;;;;;;;;;;;12.22;93.39;101131.53;5096318;28;20006;-34
2022/09/16 06:38:51;;;;;;;;;;;;;;;12.29;93.85;101132.22;5095867;28;19916;-35
2022/09/16 06:41:18;;;;;;;;;;;;;;;12.37;93.98;101127.28;5095748;28;19912;-34
2022/09/16 06:43:44;;;;;;;;;;;;;;;12.43;93.62;101116.56;5095489;28;20338;-35
2022/09/16 06:46:15;;;;;;;;;;;;;;;12.44;93.98;101118.19;5095690;28;19958;-34
2022/09/16 06:48:41;;;;;;;;;;;;;;;12.41;93.39;101115.97;5096029;28;19965;-34
2022/09/16 06:51:08;;;;;;;;;;;;;;;12.40;93.75;101119.75;5095351;28;19912;-34
2022/09/16 06:53:33;;;;;;;;;;;;;;;12.36;93.85;101116.69;5095708;28;19912;-34
2022/09/16 06:56:00;;;;;;;;;;;;;;;12.33;95.21;101119.88;5095471;28;19988;-34
2022/09/16 06:58:25;;;;;;;;;;;;;;;12.34;94.73;101113.38;5095579;28;19912;-35
2022/09/16 07:00:50;;;;;;;;;;;;;;;12.35;94.57;101112.34;5095452;28;19912;-34
2022/09/16 07:03:16;;;;;;;;;;;;;;;12.37;94.44;101121.88;5095463;28;20277;-35
2022/09/16 07:05:41;;;;;;;;;;;;;;;12.43;94.43;101124.69;5095314;28;19912;-35
2022/09/16 07:08:06;;;;;;;;;;;;;;;12.44;95.60;101119.03;5095771;28;19919;-35
2022/09/16 07:10:32;;;;;;;;;;;;;;;12.42;95.43;101126.59;5095477;28;19916;-35
2022/09/16 07:12:57;;;;;;;;;;;;;;;12.46;95.49;101125.06;5095848;28;19916;-35
2022/09/16 07:15:22;;;;;;;;;;;;;;;12.49;95.47;101121.88;5095524;28;20339;-35
2022/09/16 07:17:51;;;;;;;;;;;;;;;12.51;95.83;101125.16;5095572;28;20366;-35
2022/09/16 07:20:17;;;;;;;;;;;;;;;12.54;96.89;101127.41;5095355;28;20007;-34
2022/09/16 07:22:42;;;;;;;;;;;;;;;12.56;96.31;101119.03;5094988;28;19950;-35
2022/09/16 07:25:08;;;;;;;;;;;;;;;12.64;96.32;101121.41;5094868;28;20007;-35
2022/09/16 07:27:33;;;;;;;;;;;;;;;12.71;96.13;101123.97;5095446;28;19916;-35
2022/09/16 07:29:58;;;;;;;;;;;;;;;12.78;95.60;101130.91;5094737;28;19912;-35
2022/09/16 07:32:23;;;;;;;;;;;;;;;12.89;96.02;101121.94;5094417;28;20376;-35
2022/09/16 07:34:49;;;;;;;;;;;;;;;13.07;96.01;101120.91;5094618;28;19923;-35
2022/09/16 07:37:14;;;;;;;;;;;;;;;13.17;95.40;101128.44;5094715;28;19919;-35
2022/09/16 07:39:39;;;;;;;;;;;;;;;13.20;95.20;101138.03;5094865;28;19919;-35
2022/09/16 07:42:05;;;;;;;;;;;;;;;13.20;94.98;101133.41;5094894;28;19965;-35
2022/09/16 07:44:31;;;;;;;;;;;;;;;13.18;95.09;101130.13;5095157;28;19912;-35
2022/09/16 07:46:56;;;;;;;;;;;;;;;13.18;95.01;101132.84;5094639;28;19919;-35
2022/09/16 07:49:21;;;;;;;;;;;;;;;13.14;94.67;101124.34;5094558;28;19912;-35
2022/09/16 07:51:47;;;;;;;;;;;;;;;13.10;94.47;101127.78;5094466;28;19919;-34
2022/09/16 07:54:14;;;;;;;;;;;;;;;13.05;95.60;101131.22;5094103;28;19912;-34
2022/09/16 07:56:40;;;;;;;;;;;;;;;13.03;94.73;101138.78;5094474;28;20344;-34
2022/09/16 07:59:07;;;;;;;;;;;;;;;13.05;95.60;101138.53;5094021;28;19916;-34
2022/09/16 08:01:32;;;;;;;;;;;;;;;13.11;95.14;101140.28;5094436;28;20328;-34
2022/09/16 08:03:58;;;;;;;;;;;;;;;13.20;95.62;101143.44;5094246;28;19938;-35
2022/09/16 08:06:25;;;;;;;;;;;;;;;13.28;95.42;101141.22;5094309;28;19957;-35
2022/09/16 08:08:52;;;;;;;;;;;;;;;13.35;95.80;101135.63;5095019;28;19912;-35
2022/09/16 08:11:17;;;;;;;;;;;;;;;13.44;95.74;101144.22;5094709;28;19950;-35
2022/09/16 08:13:44;;;;;;;;;;;;;;;13.51;95.63;101147.59;5092778;28;19912;-35
2022/09/16 08:16:11;;;;;;;;;;;;;;;13.54;95.53;101152.56;5094001;28;19919;-35
2022/09/16 08:18:36;;;;;;;;;;;;;;;13.58;94.51;101157.28;5094300;28;19916;-35
2022/09/16 08:21:09;;;;;;;;;;;;;;;13.60;93.95;101149.69;5094308;28;20088;-35
2022/09/16 08:23:35;;;;;;;;;;;;;;;13.61;94.16;101145.91;5094041;28;19916;-35
2022/09/16 08:26:00;;;;;;;;;;;;;;;13.67;94.47;101146.03;5094675;28;19912;-35
2022/09/16 08:28:26;;;;;;;;;;;;;;;13.72;94.26;101146.94;5094704;28;19912;-35
2022/09/16 08:30:51;;;;;;;;;;;;;;;13.80;94.38;101149.22;5093739;28;20347;-36
2022/09/16 08:33:20;;;;;;;;;;;;;;;13.94;94.16;101149.75;5093993;28;19919;-35
2022/09/16 08:35:45;;;;;;;;;;;;;;;14.05;93.41;101151.56;5094334;28;19912;-35
2022/09/16 08:38:12;;;;;;;;;;;;;;;14.14;92.07;101158.25;5094034;28;19912;-36
2022/09/16 08:40:42;;;;;;;;;;;;;;;14.27;92.44;101159.00;5093678;28;19961;-36
2022/09/16 08:43:18;;;;;;;;;;;;;;;14.38;92.22;101150.72;5093735;28;19916;-33
2022/09/16 08:45:56;;;;;;;;;;;;;;;14.50;91.94;101150.69;5093487;28;20343;-34
2022/09/16 08:48:30;;;;;;;;;;;;;;;14.59;91.00;101148.34;5093889;28;20011;-34
2022/09/16 08:50:57;;;;;;;;;;;;;;;14.62;90.60;101150.56;5092810;28;19919;-34
2022/09/16 08:53:43;;;;;;;;;;;;;;;14.70;90.62;101154.78;5093797;28;19973;-34
2022/09/16 08:56:13;;;;;;;;;;;;;;;14.75;88.66;101146.69;5093110;28;19915;-35
2022/09/16 08:58:43;;;;;;;;;;;;;;;14.73;87.18;101149.63;5094265;28;20325;-35
2022/09/16 09:01:17;;;;;;;;;;;;;;;14.74;87.36;101145.00;5093774;28;19923;-35
2022/09/16 09:03:44;;;;;;;;;;;;;;;14.92;88.67;101158.34;5097989;28;19912;-35
2022/09/16 09:06:22;;;;;;;;;;;;;;;15.00;85.71;101152.47;5097516;28;19912;-35
2022/09/16 09:08:49;;;;;;;;;;;;;;;15.05;85.78;101149.78;5097897;28;19916;-35
2022/09/16 09:11:33;;;;;;;;;;;;;;;15.11;83.34;101151.50;5097518;28;19967;-35
2022/09/16 09:14:11;;;;;;;;;;;;;;;15.24;84.48;101150.31;5098472;28;19916;-35
2022/09/16 09:16:44;;;;;;;;;;;;;;;15.38;82.95;101150.75;5097748;28;19919;-35
2022/09/16 09:19:22;;;;;;;;;;;;;;;15.36;81.53;101161.06;5097484;28;19934;-35
2022/09/16 09:22:06;;;;;;;;;;;;;;;15.32;81.64;101165.34;5097500;28;19934;-35
2022/09/16 09:24:53;;;;;;;;;;;;;;;15.42;82.57;101160.88;5098231;28;19965;-35
2022/09/16 09:27:44;;;;;;;;;;;;;;;15.48;80.39;101155.47;5097637;28;19920;-35
2022/09/16 09:30:18;;;;;;;;;;;;;;;15.48;82.23;101169.94;5097291;28;19912;-35
2022/09/16 09:32:49;;;;;;;;;;;;;;;15.28;79.93;101197.75;5096507;28;19916;-35
2022/09/16 09:35:20;;;;;;;;;;;;;;;14.96;77.09;101208.50;5096733;28;20423;-35
2022/09/16 09:38:00;;;;;;;;;;;;;;;14.62;79.38;101211.28;5098002;28;20297;-35
2022/09/16 09:40:33;;;;;;;;;;;;;;;14.13;78.88;101212.88;5098047;28;20324;-35
2022/09/16 09:43:17;;;;;;;;;;;;;;;13.67;80.36;101214.78;5097463;28;19980;-36
2022/09/16 09:46:01;;;;;;;;;;;;;;;13.37;82.02;101206.81;5097566;28;19912;-34
2022/09/16 09:48:26;;;;;;;;;;;;;;;13.08;82.82;101201.34;5097188;28;19912;-34
2022/09/16 09:50:52;;;;;;;;;;;;;;;12.95;84.27;101207.00;5096777;28;19912;-34
2022/09/16 09:53:35;;;;;;;;;;;;;;;12.85;84.37;101202.19;5097575;28;19911;-34
2022/09/16 09:56:12;;;;;;;;;;;;;;;12.82;85.12;101201.81;5097606;28;20256;-34
2022/09/16 09:58:42;;;;;;;;;;;;;;;12.81;85.33;101187.44;5097471;28;20006;-35
2022/09/16 10:01:07;;;;;;;;;;;;;;;12.83;85.59;101192.59;5097120;28;19923;-35
2022/09/16 10:03:33;;;;;;;;;;;;;;;12.85;85.66;101190.50;5097067;28;20349;-35
2022/09/16 10:05:58;;;;;;;;;;;;;;;12.84;85.98;101192.41;5096481;28;19911;-35
2022/09/16 10:08:45;;;;;;;;;;;;;;;12.82;85.92;101190.97;5097006;28;20006;-35
2022/09/16 10:11:15;;;;;;;;;;;;;;;12.81;85.89;101189.31;5096887;28;19961;-35
2022/09/16 10:13:46;;;;;;;;;;;;;;;12.81;86.87;101186.59;5096231;28;19957;-35
2022/09/16 10:16:13;;;;;;;;;;;;;;;12.78;87.09;101187.06;5096844;28;19912;-35
2022/09/16 10:18:39;;;;;;;;;;;;;;;12.75;86.87;101179.41;5096242;28;20010;-35
2022/09/16 10:21:04;;;;;;;;;;;;;;;12.77;86.96;101185.41;5096133;28;19981;-35
2022/09/16 10:23:30;;;;;;;;;;;;;;;12.78;87.13;101184.34;5097185;28;19912;-35
2022/09/16 10:26:14;;;;;;;;;;;;;;;12.83;87.50;101192.59;5096291;28;19963;-35
2022/09/16 10:28:39;;;;;;;;;;;;;;;13.08;87.37;101190.47;5096236;28;19912;-35
2022/09/16 10:31:06;;;;;;;;;;;;;;;13.31;87.31;101177.91;5096724;28;20361;-35
2022/09/16 10:33:33;;;;;;;;;;;;;;;13.47;87.54;101181.75;5096623;28;19911;-35
2022/09/16 10:36:04;;;;;;;;;;;;;;;13.72;87.38;101184.16;5095702;28;19978;-35
2022/09/16 10:38:37;;;;;;;;;;;;;;;14.00;87.59;101169.69;5096531;28;19912;-35
2022/09/16 10:41:18;;;;;;;;;;;;;;;14.26;87.44;101169.06;5095870;28;20280;-34
2022/09/16 10:43:49;;;;;;;;;;;;;;;14.52;86.86;101166.75;5096424;28;19912;-35
2022/09/16 10:46:15;;;;;;;;;;;;;;;14.72;87.12;101163.50;5094429;28;20356;-35
2022/09/16 10:48:41;;;;;;;;;;;;;;;14.92;86.34;101171.94;5095853;28;19937;-35
2022/09/16 10:51:18;;;;;;;;;;;;;;;15.09;85.65;101166.47;5095783;28;20314;-35
2022/09/16 10:53:44;;;;;;;;;;;;;;;15.17;85.63;101164.09;5095746;28;19912;-35
2022/09/16 10:56:16;;;;;;;;;;;;;;;15.37;83.56;101154.53;5095646;28;19912;-42
2022/09/16 10:58:41;;;;;;;;;;;;;;;15.62;84.55;101154.81;5096193;28;19974;-35
2022/09/16 11:01:23;;;;;;;;;;;;;;;15.84;84.29;101152.06;5095545;28;19923;-35
2022/09/16 11:03:51;;;;;;;;;;;;;;;15.88;83.09;101147.72;5095879;28;19915;-35
2022/09/16 11:06:22;;;;;;;;;;;;;;;15.46;77.71;101161.97;5095463;28;20019;-35
2022/09/16 11:08:50;;;;;;;;;;;;;;;15.39;82.40;101160.56;5096252;28;20298;-35
2022/09/16 11:11:31;;;;;;;;;;;;;;;15.18;82.59;101164.94;5095896;28;20343;-35
2022/09/16 11:13:59;;;;;;;;;;;;;;;14.94;83.05;101170.63;5095633;28;19916;-35
2022/09/16 11:16:27;;;;;;;;;;;;;;;14.82;83.63;101164.47;5095099;28;19935;-35
2022/09/16 11:18:53;;;;;;;;;;;;;;;14.78;84.48;101174.19;5094913;28;20002;-35
2022/09/16 11:21:18;;;;;;;;;;;;;;;14.93;85.81;101173.59;5094952;28;20007;-35
2022/09/16 11:24:09;;;;;;;;;;;;;;;15.13;85.66;101168.44;5095893;28;19912;-35
2022/09/16 11:26:35;;;;;;;;;;;;;;;15.41;86.34;101155.66;5094263;28;20002;-34
2022/09/16 11:29:17;;;;;;;;;;;;;;;15.72;81.78;101158.75;5095775;28;19947;-34
2022/09/16 11:31:53;;;;;;;;;;;;;;;16.09;83.31;101156.09;5094662;28;19912;-34
2022/09/16 11:34:18;;;;;;;;;;;;;;;16.35;83.16;101163.41;5095604;28;19923;-35
2022/09/16 11:36:43;;;;;;;;;;;;;;;16.44;80.13;101158.25;5094531;28;20291;-34
2022/09/16 11:39:27;;;;;;;;;;;;;;;16.51;77.88;101166.25;5095154;28;19961;-34
2022/09/16 11:42:04;;;;;;;;;;;;;;;16.37;77.17;101172.16;5095256;28;20334;-34
2022/09/16 11:44:41;;;;;;;;;;;;;;;16.14;73.11;101191.59;5094773;28;19919;-34
2022/09/16 11:47:16;;;;;;;;;;;;;;;15.78;74.30;101239.53;5095242;28;19924;-34
2022/09/16 11:49:47;;;;;;;;;;;;;;;14.25;79.68;101242.72;5094963;28;19919;-34
2022/09/16 11:52:31;;;;;;;;;;;;;;;13.74;79.87;101236.38;5094365;28;20041;-35
2022/09/16 11:54:56;;;;;;;;;;;;;;;13.20;81.85;101244.75;5095010;28;19920;-34
2022/09/16 11:57:24;;;;;;;;;;;;;;;12.90;82.82;101234.03;5095052;28;20009;-35
2022/09/16 12:00:02;;;;;;;;;;;;;;;12.75;83.65;101229.09;5094154;28;20274;-35
2022/09/16 12:02:27;;;;;;;;;;;;;;;12.68;84.75;101222.94;5095287;28;19916;-35
2022/09/16 12:05:16;;;;;;;;;;;;;;;12.71;84.35;101224.38;5094061;28;19918;-35
2022/09/16 12:07:43;;;;;;;;;;;;;;;12.92;85.20;101222.94;5051990;28;19952;-35
2022/09/16 12:10:23;;;;;;;;;;;;;;;13.30;85.42;101219.72;5052248;28;19917;-35
2022/09/16 12:12:57;;;;;;;;;;;;;;;13.62;86.01;101220.94;5052351;28;20305;-35
2022/09/16 12:15:26;;;;;;;;;;;;;;;13.82;85.73;101212.34;5051993;28;20049;-35
2022/09/16 12:17:54;;;;;;;;;;;;;;;14.07;86.69;101203.81;5051368;28;20364;-35
2022/09/16 12:20:23;;;;;;;;;;;;;;;14.33;85.58;101201.53;5051408;28;19913;-35
2022/09/16 12:22:53;;;;;;;;;;;;;;;14.63;86.14;101191.13;5051328;28;19970;-35
2022/09/16 12:25:27;;;;;;;;;;;;;;;14.94;85.69;101195.16;5051308;28;19979;-35
2022/09/16 12:27:52;;;;;;;;;;;;;;;15.23;84.63;101194.16;5051765;28;19948;-35
2022/09/16 12:30:29;;;;;;;;;;;;;;;15.38;82.31;101186.16;5051971;28;20373;-35
2022/09/16 12:33:14;;;;;;;;;;;;;;;15.45;81.71;101192.22;5051494;28;19916;-35
2022/09/16 12:35:48;;;;;;;;;;;;;;;15.55;81.66;101202.44;5051133;28;19960;-35
2022/09/16 12:38:18;;;;;;;;;;;;;;;15.34;80.64;101204.09;5051590;28;20027;-36
2022/09/16 12:40:46;;;;;;;;;;;;;;;15.15;82.66;101207.13;5051177;28;20003;-36
2022/09/16 12:43:14;;;;;;;;;;;;;;;14.97;82.41;101207.41;5051428;28;20308;-36
2022/09/16 12:45:58;;;;;;;;;;;;;;;14.78;82.99;101216.94;5089807;28;19912;-36
2022/09/16 12:48:45;;;;;;;;;;;;;;;14.58;83.59;101222.91;5093974;28;19912;-36